sensor_id;sensor_type;location;lat;lon;timestamp;pressure;altitude;pressure_sealevel;temperature;humidity
13420;BME280;6781;58.440;15.470;2023-04-10T00:00:45;102434.69;;;1.21;100.00
13420;BME280;6781;58.440;15.470;2023-04-10T00:03:15;102429.41;;;1.40;100.00
13420;BME280;6781;58.440;15.470;2023-04-10T00:05:43;102442.13;;;1.44;100.00
13420;BME280;6781;58.440;15.470;2023-04-10T00:08:10;102443.19;;;1.25;100.00
13420;BME280;6781;58.440;15.470;2023-04-10T00:10:37;102446.84;;;0.98;100.00
13420;BME280;6781;58.440;15.470;2023-04-10T00:13:04;102453.44;;;1.20;100.00
13420;BME280;6781;58.440;15.470;2023-04-10T00:15:30;102450.91;;;1.17;100.00
13420;BME280;6781;58.440;15.470;2023-04-10T00:17:57;102461.06;;;1.25;100.00
13420;BME280;6781;58.440;15.470;2023-04-10T00:20:24;102461.16;;;1.14;100.00
13420;BME280;6781;58.440;15.470;2023-04-10T00:22:53;102457.88;;;1.03;100.00
13420;BME280;6781;58.440;15.470;2023-04-10T00:25:20;102473.25;;;0.95;100.00
13420;BME280;6781;58.440;15.470;2023-04-10T00:27:48;102479.34;;;0.81;100.00
13420;BME280;6781;58.440;15.470;2023-04-10T00:30:15;102481.91;;;0.79;100.00
13420;BME280;6781;58.440;15.470;2023-04-10T00:32:42;102490.34;;;0.89;100.00
13420;BME280;6781;58.440;15.470;2023-04-10T00:35:09;102490.47;;;0.72;100.00
13420;BME280;6781;58.440;15.470;2023-04-10T00:37:36;102504.22;;;0.53;100.00
13420;BME280;6781;58.440;15.470;2023-04-10T00:40:05;102504.16;;;0.60;100.00
13420;BME280;6781;58.440;15.470;2023-04-10T00:42:32;102511.72;;;0.76;100.00
13420;BME280;6781;58.440;15.470;2023-04-10T00:44:59;102508.31;;;0.77;100.00
13420;BME280;6781;58.440;15.470;2023-04-10T00:47:26;102494.88;;;0.49;100.00
13420;BME280;6781;58.440;15.470;2023-04-10T00:49:53;102501.66;;;0.54;100.00
13420;BME280;6781;58.440;15.470;2023-04-10T00:52:20;102506.59;;;0.80;100.00
13420;BME280;6781;58.440;15.470;2023-04-10T00:54:47;102503.31;;;0.61;100.00
13420;BME280;6781;58.440;15.470;2023-04-10T00:57:15;102496.47;;;0.63;100.00
13420;BME280;6781;58.440;15.470;2023-04-10T00:59:42;102505.78;;;0.71;100.00
13420;BME280;6781;58.440;15.470;2023-04-10T01:02:09;102496.47;;;0.68;100.00
13420;BME280;6781;58.440;15.470;2023-04-10T01:04:37;102514.25;;;0.77;100.00
13420;BME280;6781;58.440;15.470;2023-04-10T01:07:06;102506.66;;;0.70;100.00
13420;BME280;6781;58.440;15.470;2023-04-10T01:09:37;102512.63;;;0.70;100.00
13420;BME280;6781;58.440;15.470;2023-04-10T01:12:11;102514.38;;;0.59;100.00
13420;BME280;6781;58.440;15.470;2023-04-10T01:14:48;102507.56;;;0.61;100.00
13420;BME280;6781;58.440;15.470;2023-04-10T01:17:20;102505.88;;;0.60;100.00
13420;BME280;6781;58.440;15.470;2023-04-10T01:19:56;102502.41;;;0.67;100.00
13420;BME280;6781;58.440;15.470;2023-04-10T01:22:25;102515.19;;;0.69;100.00
13420;BME280;6781;58.440;15.470;2023-04-10T01:24:59;102499.88;;;0.65;100.00
13420;BME280;6781;58.440;15.470;2023-04-10T01:27:33;102505.84;;;0.64;100.00
13420;BME280;6781;58.440;15.470;2023-04-10T01:30:04;102499.84;;;0.69;100.00
13420;BME280;6781;58.440;15.470;2023-04-10T01:32:32;102504.09;;;0.70;100.00
13420;BME280;6781;58.440;15.470;2023-04-10T01:35:00;102504.13;;;0.68;100.00
13420;BME280;6781;58.440;15.470;2023-04-10T01:37:30;102501.56;;;0.67;100.00
13420;BME280;6781;58.440;15.470;2023-04-10T01:39:59;102493.94;;;0.60;100.00
13420;BME280;6781;58.440;15.470;2023-04-10T01:42:27;102496.47;;;0.63;100.00
13420;BME280;6781;58.440;15.470;2023-04-10T01:44:54;102492.25;;;0.62;100.00
13420;BME280;6781;58.440;15.470;2023-04-10T01:47:24;102496.66;;;0.35;100.00
13420;BME280;6781;58.440;15.470;2023-04-10T01:49:52;102503.41;;;0.46;100.00
13420;BME280;6781;58.440;15.470;2023-04-10T01:52:20;102503.41;;;0.46;100.00
13420;BME280;6781;58.440;15.470;2023-04-10T01:54:49;102504.25;;;0.45;100.00
13420;BME280;6781;58.440;15.470;2023-04-10T01:57:16;102495.72;;;0.49;100.00
13420;BME280;6781;58.440;15.470;2023-04-10T01:59:43;102505.94;;;0.51;100.00
13420;BME280;6781;58.440;15.470;2023-04-10T02:02:10;102495.75;;;0.45;100.00
13420;BME280;6781;58.440;15.470;2023-04-10T02:07:19;102495.75;;;0.45;100.00
13420;BME280;6781;58.440;15.470;2023-04-10T02:09:50;102499.19;;;0.38;100.00
13420;BME280;6781;58.440;15.470;2023-04-10T02:12:21;102488.94;;;0.48;100.00
13420;BME280;6781;58.440;15.470;2023-04-10T02:14:49;102483.00;;;0.46;100.00
13420;BME280;6781;58.440;15.470;2023-04-10T02:17:17;102482.22;;;0.30;100.00
13420;BME280;6781;58.440;15.470;2023-04-10T02:19:46;102486.47;;;0.33;100.00
13420;BME280;6781;58.440;15.470;2023-04-10T02:22:14;102481.34;;;0.38;100.00
13420;BME280;6781;58.440;15.470;2023-04-10T02:24:43;102482.19;;;0.38;100.00
13420;BME280;6781;58.440;15.470;2023-04-10T02:27:10;102476.25;;;0.33;100.00
13420;BME280;6781;58.440;15.470;2023-04-10T02:29:37;102477.97;;;0.31;100.00
13420;BME280;6781;58.440;15.470;2023-04-10T02:32:04;102470.34;;;0.26;100.00
13420;BME280;6781;58.440;15.470;2023-04-10T02:34:33;102477.16;;;0.26;100.00
13420;BME280;6781;58.440;15.470;2023-04-10T02:37:00;102473.75;;;0.25;100.00
13420;BME280;6781;58.440;15.470;2023-04-10T02:39:27;102472.94;;;0.22;100.00
13420;BME280;6781;58.440;15.470;2023-04-10T02:41:55;102472.13;;;0.14;100.00
13420;BME280;6781;58.440;15.470;2023-04-10T02:44:22;102469.56;;;0.14;100.00
13420;BME280;6781;58.440;15.470;2023-04-10T02:46:49;102472.09;;;0.17;100.00
13420;BME280;6781;58.440;15.470;2023-04-10T02:49:15;102471.25;;;0.15;100.00
13420;BME280;6781;58.440;15.470;2023-04-10T02:51:42;102477.25;;;0.09;100.00
13420;BME280;6781;58.440;15.470;2023-04-10T02:54:09;102468.75;;;0.04;100.00
13420;BME280;6781;58.440;15.470;2023-04-10T02:56:35;102474.81;;;-0.08;100.00
13420;BME280;6781;58.440;15.470;2023-04-10T02:59:04;102468.03;;;-0.12;100.00
13420;BME280;6781;58.440;15.470;2023-04-10T03:01:31;102477.38;;;-0.14;100.00
13420;BME280;6781;58.440;15.470;2023-04-10T03:03:57;102485.91;;;-0.19;100.00
13420;BME280;6781;58.440;15.470;2023-04-10T03:06:24;102490.13;;;-0.18;100.00
13420;BME280;6781;58.440;15.470;2023-04-10T03:08:52;102485.91;;;-0.19;100.00
13420;BME280;6781;58.440;15.470;2023-04-10T03:11:18;102490.16;;;-0.20;100.00
13420;BME280;6781;58.440;15.470;2023-04-10T03:13:45;102490.16;;;-0.26;100.00
13420;BME280;6781;58.440;15.470;2023-04-10T03:16:14;102490.16;;;-0.26;100.00
13420;BME280;6781;58.440;15.470;2023-04-10T03:18:41;102488.47;;;-0.27;100.00
13420;BME280;6781;58.440;15.470;2023-04-10T03:21:08;102491.03;;;-0.36;100.00
13420;BME280;6781;58.440;15.470;2023-04-10T03:23:35;102495.31;;;-0.41;100.00
13420;BME280;6781;58.440;15.470;2023-04-10T03:26:02;102497.81;;;-0.27;100.00
13420;BME280;6781;58.440;15.470;2023-04-10T03:28:29;102508.84;;;-0.18;100.00
13420;BME280;6781;58.440;15.470;2023-04-10T03:30:57;102498.66;;;-0.24;100.00
13420;BME280;6781;58.440;15.470;2023-04-10T03:33:25;102489.31;;;-0.26;100.00
13420;BME280;6781;58.440;15.470;2023-04-10T03:35:52;102498.66;;;-0.27;100.00
13420;BME280;6781;58.440;15.470;2023-04-10T03:38:19;102498.66;;;-0.25;100.00
13420;BME280;6781;58.440;15.470;2023-04-10T03:40:46;102493.56;;;-0.24;100.00
13420;BME280;6781;58.440;15.470;2023-04-10T03:43:12;102492.72;;;-0.26;100.00
13420;BME280;6781;58.440;15.470;2023-04-10T03:45:39;102494.41;;;-0.25;100.00
13420;BME280;6781;58.440;15.470;2023-04-10T03:48:06;102493.56;;;-0.27;100.00
13420;BME280;6781;58.440;15.470;2023-04-10T03:50:34;102477.44;;;-0.37;100.00
13420;BME280;6781;58.440;15.470;2023-04-10T03:53:01;102479.16;;;-0.34;100.00
13420;BME280;6781;58.440;15.470;2023-04-10T03:55:28;102477.44;;;-0.32;100.00
13420;BME280;6781;58.440;15.470;2023-04-10T03:57:55;102474.91;;;-0.34;100.00
13420;BME280;6781;58.440;15.470;2023-04-10T04:00:22;102480.84;;;-0.33;100.00
13420;BME280;6781;58.440;15.470;2023-04-10T04:02:50;102482.53;;;-0.29;100.00
13420;BME280;6781;58.440;15.470;2023-04-10T04:05:17;102483.38;;;-0.30;100.00
13420;BME280;6781;58.440;15.470;2023-04-10T04:07:45;102484.25;;;-0.34;100.00
13420;BME280;6781;58.440;15.470;2023-04-10T04:10:12;102476.59;;;-0.37;100.00
13420;BME280;6781;58.440;15.470;2023-04-10T04:12:40;102480.88;;;-0.42;100.00
13420;BME280;6781;58.440;15.470;2023-04-10T04:15:07;102482.56;;;-0.38;100.00
13420;BME280;6781;58.440;15.470;2023-04-10T04:17:34;102485.09;;;-0.35;100.00
13420;BME280;6781;58.440;15.470;2023-04-10T04:20:01;102481.69;;;-0.37;100.00
13420;BME280;6781;58.440;15.470;2023-04-10T04:22:28;102477.47;;;-0.41;100.00
13420;BME280;6781;58.440;15.470;2023-04-10T04:24:57;102474.06;;;-0.42;100.00
13420;BME280;6781;58.440;15.470;2023-04-10T04:27:24;102475.75;;;-0.36;100.00
13420;BME280;6781;58.440;15.470;2023-04-10T04:29:51;102471.53;;;-0.43;100.00
13420;BME280;6781;58.440;15.470;2023-04-10T04:32:18;102472.38;;;-0.43;100.00
13420;BME280;6781;58.440;15.470;2023-04-10T04:34:46;102473.22;;;-0.42;100.00
13420;BME280;6781;58.440;15.470;2023-04-10T04:37:13;102469.81;;;-0.41;100.00
13420;BME280;6781;58.440;15.470;2023-04-10T04:39:40;102467.28;;;-0.40;100.00
13420;BME280;6781;58.440;15.470;2023-04-10T04:42:08;102473.22;;;-0.39;100.00
13420;BME280;6781;58.440;15.470;2023-04-10T04:44:35;102474.09;;;-0.48;100.00
13420;BME280;6781;58.440;15.470;2023-04-10T04:47:02;102481.75;;;-0.57;100.00
13420;BME280;6781;58.440;15.470;2023-04-10T04:49:29;102487.72;;;-0.66;100.00
13420;BME280;6781;58.440;15.470;2023-04-10T04:51:55;102481.78;;;-0.83;100.00
13420;BME280;6781;58.440;15.470;2023-04-10T04:54:22;102490.25;;;-0.69;100.00
13420;BME280;6781;58.440;15.470;2023-04-10T04:56:49;102498.75;;;-0.76;100.00
13420;BME280;6781;58.440;15.470;2023-04-10T04:59:18;102501.31;;;-0.76;100.00
13420;BME280;6781;58.440;15.470;2023-04-10T05:01:45;102516.59;;;-0.73;100.00
13420;BME280;6781;58.440;15.470;2023-04-10T05:04:13;102523.38;;;-0.84;100.00
13420;BME280;6781;58.440;15.470;2023-04-10T05:06:40;102530.19;;;-0.92;100.00
13420;BME280;6781;58.440;15.470;2023-04-10T05:09:07;102536.13;;;-0.78;100.00
13420;BME280;6781;58.440;15.470;2023-04-10T05:11:34;102542.91;;;-0.68;100.00
13420;BME280;6781;58.440;15.470;2023-04-10T05:14:01;102547.16;;;-0.80;100.00
13420;BME280;6781;58.440;15.470;2023-04-10T05:16:31;102542.06;;;-0.92;100.00
13420;BME280;6781;58.440;15.470;2023-04-10T05:18:57;102550.56;;;-0.84;100.00
13420;BME280;6781;58.440;15.470;2023-04-10T05:21:24;102555.66;;;-0.77;100.00
13420;BME280;6781;58.440;15.470;2023-04-10T05:23:51;102558.19;;;-0.86;100.00
13420;BME280;6781;58.440;15.470;2023-04-10T05:26:19;102572.63;;;-0.80;100.00
13420;BME280;6781;58.440;15.470;2023-04-10T05:28:46;102579.41;;;-0.73;100.00
13420;BME280;6781;58.440;15.470;2023-04-10T05:31:14;102586.22;;;-0.72;100.00
13420;BME280;6781;58.440;15.470;2023-04-10T05:33:42;102594.72;;;-0.64;100.00
13420;BME280;6781;58.440;15.470;2023-04-10T05:36:09;102598.09;;;-0.57;100.00
13420;BME280;6781;58.440;15.470;2023-04-10T05:38:36;102600.66;;;-0.50;100.00
13420;BME280;6781;58.440;15.470;2023-04-10T05:41:03;102608.28;;;-0.45;100.00
13420;BME280;6781;58.440;15.470;2023-04-10T05:43:30;102613.38;;;-0.44;100.00
13420;BME280;6781;58.440;15.470;2023-04-10T05:45:57;102618.47;;;-0.38;100.00
13420;BME280;6781;58.440;15.470;2023-04-10T05:48:24;102626.97;;;-0.25;100.00
13420;BME280;6781;58.440;15.470;2023-04-10T05:50:54;102638.00;;;-0.14;100.00
13420;BME280;6781;58.440;15.470;2023-04-10T05:53:21;102639.69;;;-0.04;100.00
13420;BME280;6781;58.440;15.470;2023-04-10T05:55:49;102638.00;;;-0.05;100.00
13420;BME280;6781;58.440;15.470;2023-04-10T05:58:16;102646.44;;;0.02;100.00
13420;BME280;6781;58.440;15.470;2023-04-10T06:00:43;102648.97;;;0.19;100.00
13420;BME280;6781;58.440;15.470;2023-04-10T06:03:11;102658.28;;;0.27;100.00
13420;BME280;6781;58.440;15.470;2023-04-10T06:05:37;102674.44;;;0.28;100.00
13420;BME280;6781;58.440;15.470;2023-04-10T06:08:07;102666.78;;;0.37;100.00
13420;BME280;6781;58.440;15.470;2023-04-10T06:10:33;102665.03;;;0.45;100.00
13420;BME280;6781;58.440;15.470;2023-04-10T06:13:01;102673.47;;;0.65;100.00
13420;BME280;6781;58.440;15.470;2023-04-10T06:15:42;102678.53;;;0.78;100.00
13420;BME280;6781;58.440;15.470;2023-04-10T06:18:09;102670.81;;;0.90;100.00
13420;BME280;6781;58.440;15.470;2023-04-10T06:20:40;102671.59;;;1.01;100.00
13420;BME280;6781;58.440;15.470;2023-04-10T06:23:08;102680.06;;;1.12;100.00
13420;BME280;6781;58.440;15.470;2023-04-10T06:25:44;102671.50;;;1.19;100.00
13420;BME280;6781;58.440;15.470;2023-04-10T06:28:11;102660.41;;;1.23;100.00
13420;BME280;6781;58.440;15.470;2023-04-10T06:30:38;102659.47;;;1.34;100.00
13420;BME280;6781;58.440;15.470;2023-04-10T06:33:05;102655.03;;;1.57;100.00
13420;BME280;6781;58.440;15.470;2023-04-10T06:35:42;102651.59;;;1.62;100.00
13420;BME280;6781;58.440;15.470;2023-04-10T06:38:10;102650.66;;;1.71;100.00
13420;BME280;6781;58.440;15.470;2023-04-10T06:40:45;102650.50;;;1.85;100.00
13420;BME280;6781;58.440;15.470;2023-04-10T06:43:12;102649.59;;;1.92;100.00
13420;BME280;6781;58.440;15.470;2023-04-10T06:45:38;102648.66;;;2.01;100.00
13420;BME280;6781;58.440;15.470;2023-04-10T06:48:06;102650.22;;;2.14;100.00
13420;BME280;6781;58.440;15.470;2023-04-10T06:50:33;102648.41;;;2.25;100.00
13420;BME280;6781;58.440;15.470;2023-04-10T06:53:00;102641.47;;;2.33;100.00
13420;BME280;6781;58.440;15.470;2023-04-10T06:55:29;102649.91;;;2.41;100.00
13420;BME280;6781;58.440;15.470;2023-04-10T06:57:56;102659.03;;;2.64;100.00
13420;BME280;6781;58.440;15.470;2023-04-10T07:00:23;102651.09;;;2.83;100.00
13420;BME280;6781;58.440;15.470;2023-04-10T07:02:51;102648.38;;;2.96;100.00
13420;BME280;6781;58.440;15.470;2023-04-10T07:05:21;102621.09;;;2.91;100.00
13420;BME280;6781;58.440;15.470;2023-04-10T07:07:47;102625.28;;;2.97;100.00
13420;BME280;6781;58.440;15.470;2023-04-10T07:10:14;102614.28;;;2.90;100.00
13420;BME280;6781;58.440;15.470;2023-04-10T07:12:43;102628.47;;;3.14;100.00
13420;BME280;6781;58.440;15.470;2023-04-10T07:15:10;102612.84;;;3.30;100.00
13420;BME280;6781;58.440;15.470;2023-04-10T07:17:37;102603.41;;;3.32;100.00
13420;BME280;6781;58.440;15.470;2023-04-10T07:20:05;102592.72;;;3.54;100.00
13420;BME280;6781;58.440;15.470;2023-04-10T07:22:32;102576.56;;;3.51;100.00
13420;BME280;6781;58.440;15.470;2023-04-10T07:24:59;102574.69;;;3.59;100.00
13420;BME280;6781;58.440;15.470;2023-04-10T07:27:26;102568.66;;;3.62;100.00
13420;BME280;6781;58.440;15.470;2023-04-10T07:29:55;102561.38;;;3.86;100.00
13420;BME280;6781;58.440;15.470;2023-04-10T07:32:40;102557.91;;;3.89;100.00
13420;BME280;6781;58.440;15.470;2023-04-10T07:35:11;102544.75;;;4.04;100.00
13420;BME280;6781;58.440;15.470;2023-04-10T07:37:38;102534.41;;;4.09;100.00
13420;BME280;6781;58.440;15.470;2023-04-10T07:40:08;102518.75;;;4.21;100.00
13420;BME280;6781;58.440;15.470;2023-04-10T07:42:35;102509.78;;;4.39;100.00
13420;BME280;6781;58.440;15.470;2023-04-10T07:45:04;102507.78;;;4.51;100.00
13420;BME280;6781;58.440;15.470;2023-04-10T07:47:31;102493.72;;;4.68;100.00
13420;BME280;6781;58.440;15.470;2023-04-10T07:49:58;102463.75;;;5.02;100.00
13420;BME280;6781;58.440;15.470;2023-04-10T07:52:25;102441.94;;;5.17;100.00
13420;BME280;6781;58.440;15.470;2023-04-10T07:54:52;102413.91;;;5.37;100.00
13420;BME280;6781;58.440;15.470;2023-04-10T07:57:18;102375.59;;;5.57;100.00
13420;BME280;6781;58.440;15.470;2023-04-10T07:59:45;102357.53;;;5.59;100.00
13420;BME280;6781;58.440;15.470;2023-04-10T08:02:13;102345.28;;;5.67;100.00
13420;BME280;6781;58.440;15.470;2023-04-10T08:04:40;102325.53;;;5.68;100.00
13420;BME280;6781;58.440;15.470;2023-04-10T08:07:07;102301.34;;;6.01;100.00
13420;BME280;6781;58.440;15.470;2023-04-10T08:09:34;102266.72;;;6.10;100.00
13420;BME280;6781;58.440;15.470;2023-04-10T08:12:01;102248.38;;;6.19;100.00
13420;BME280;6781;58.440;15.470;2023-04-10T08:14:28;102227.78;;;6.19;100.00
13420;BME280;6781;58.440;15.470;2023-04-10T08:16:55;102207.75;;;6.27;100.00
13420;BME280;6781;58.440;15.470;2023-04-10T08:19:23;102192.28;;;6.27;100.00
13420;BME280;6781;58.440;15.470;2023-04-10T08:21:50;102231.25;;;6.43;100.00
13420;BME280;6781;58.440;15.470;2023-04-10T08:24:16;102246.19;;;6.33;100.00
13420;BME280;6781;58.440;15.470;2023-04-10T08:26:46;102266.06;;;6.30;100.00
13420;BME280;6781;58.440;15.470;2023-04-10T08:29:12;102265.59;;;6.43;100.00
13420;BME280;6781;58.440;15.470;2023-04-10T08:31:40;102271.88;;;6.60;100.00
13420;BME280;6781;58.440;15.470;2023-04-10T08:34:06;102256.75;;;6.50;100.00
13420;BME280;6781;58.440;15.470;2023-04-10T08:36:36;102260.25;;;6.73;100.00
13420;BME280;6781;58.440;15.470;2023-04-10T08:39:03;102251.56;;;6.75;100.00
13420;BME280;6781;58.440;15.470;2023-04-10T08:41:29;102237.91;;;6.95;100.00
13420;BME280;6781;58.440;15.470;2023-04-10T08:43:56;102216.94;;;7.04;100.00
13420;BME280;6781;58.440;15.470;2023-04-10T08:46:23;102214.06;;;6.90;100.00
13420;BME280;6781;58.440;15.470;2023-04-10T08:48:52;102210.38;;;6.96;100.00
13420;BME280;6781;58.440;15.470;2023-04-10T08:51:19;102200.63;;;7.04;100.00
13420;BME280;6781;58.440;15.470;2023-04-10T08:53:49;102200.16;;;7.38;100.00
13420;BME280;6781;58.440;15.470;2023-04-10T08:56:16;102196.31;;;7.26;100.00
13420;BME280;6781;58.440;15.470;2023-04-10T08:58:44;102169.88;;;7.63;100.00
13420;BME280;6781;58.440;15.470;2023-04-10T09:01:11;102171.91;;;7.55;100.00
13420;BME280;6781;58.440;15.470;2023-04-10T09:03:37;102166.75;;;7.55;100.00
13420;BME280;6781;58.440;15.470;2023-04-10T09:06:04;102145.28;;;7.75;100.00
13420;BME280;6781;58.440;15.470;2023-04-10T09:08:32;102113.56;;;7.92;100.00
13420;BME280;6781;58.440;15.470;2023-04-10T09:11:00;102088.88;;;8.05;100.00
13420;BME280;6781;58.440;15.470;2023-04-10T09:13:34;102083.88;;;8.21;100.00
13420;BME280;6781;58.440;15.470;2023-04-10T09:16:01;102062.06;;;8.26;100.00
13420;BME280;6781;58.440;15.470;2023-04-10T09:18:39;102054.00;;;8.34;100.00
13420;BME280;6781;58.440;15.470;2023-04-10T09:21:08;102054.69;;;8.37;100.00
13420;BME280;6781;58.440;15.470;2023-04-10T09:23:35;102030.09;;;8.47;100.00
13420;BME280;6781;58.440;15.470;2023-04-10T09:26:05;102032.91;;;8.43;100.00
13420;BME280;6781;58.440;15.470;2023-04-10T09:28:55;102014.09;;;8.75;100.00
13420;BME280;6781;58.440;15.470;2023-04-10T09:31:26;102012.81;;;8.84;100.00
13420;BME280;6781;58.440;15.470;2023-04-10T09:33:55;102003.06;;;9.06;100.00
13420;BME280;6781;58.440;15.470;2023-04-10T09:36:32;101990.50;;;8.99;100.00
13420;BME280;6781;58.440;15.470;2023-04-10T09:38:58;101988.91;;;9.13;100.00
13420;BME280;6781;58.440;15.470;2023-04-10T09:41:28;101988.03;;;9.48;99.11
13420;BME280;6781;58.440;15.470;2023-04-10T09:44:04;101985.53;;;9.46;96.90
13420;BME280;6781;58.440;15.470;2023-04-10T09:46:31;101967.06;;;9.52;93.79
13420;BME280;6781;58.440;15.470;2023-04-10T09:48:58;101972.06;;;9.72;93.87
13420;BME280;6781;58.440;15.470;2023-04-10T09:51:28;101968.47;;;9.75;91.19
13420;BME280;6781;58.440;15.470;2023-04-10T09:53:56;101958.00;;;9.76;90.69
13420;BME280;6781;58.440;15.470;2023-04-10T09:56:23;101956.53;;;9.88;91.39
13420;BME280;6781;58.440;15.470;2023-04-10T09:58:54;101956.09;;;10.11;91.62
13420;BME280;6781;58.440;15.470;2023-04-10T10:01:23;101951.19;;;10.23;91.47
13420;BME280;6781;58.440;15.470;2023-04-10T10:03:52;101950.34;;;10.38;88.36
13420;BME280;6781;58.440;15.470;2023-04-10T10:06:20;101956.88;;;10.29;88.87
13420;BME280;6781;58.440;15.470;2023-04-10T10:08:47;101948.00;;;10.33;87.26
13420;BME280;6781;58.440;15.470;2023-04-10T10:11:14;101952.38;;;10.47;88.03
13420;BME280;6781;58.440;15.470;2023-04-10T10:13:45;101938.06;;;10.56;86.97
13420;BME280;6781;58.440;15.470;2023-04-10T10:16:17;101942.56;;;10.68;87.75
13420;BME280;6781;58.440;15.470;2023-04-10T10:18:46;101942.91;;;10.62;86.70
13420;BME280;6781;58.440;15.470;2023-04-10T10:21:16;101928.66;;;10.69;87.38
13420;BME280;6781;58.440;15.470;2023-04-10T10:23:45;101916.31;;;11.02;84.87
13420;BME280;6781;58.440;15.470;2023-04-10T10:26:18;101916.13;;;11.34;85.38
13420;BME280;6781;58.440;15.470;2023-04-10T10:28:45;101909.16;;;11.63;82.64
13420;BME280;6781;58.440;15.470;2023-04-10T10:31:12;101896.06;;;11.79;79.73
13420;BME280;6781;58.440;15.470;2023-04-10T10:33:40;101892.16;;;11.86;79.62
13420;BME280;6781;58.440;15.470;2023-04-10T10:36:07;101902.56;;;11.86;79.48
13420;BME280;6781;58.440;15.470;2023-04-10T10:38:35;101878.97;;;11.89;75.90
13420;BME280;6781;58.440;15.470;2023-04-10T10:41:08;101892.25;;;12.11;77.54
13420;BME280;6781;58.440;15.470;2023-04-10T10:43:49;101873.09;;;11.44;75.19
13420;BME280;6781;58.440;15.470;2023-04-10T10:46:20;101853.97;;;11.45;71.99
13420;BME280;6781;58.440;15.470;2023-04-10T10:48:57;101865.22;;;11.31;74.21
13420;BME280;6781;58.440;15.470;2023-04-10T10:54:26;101884.72;;;10.66;77.41
13420;BME280;6781;58.440;15.470;2023-04-10T10:56:53;101872.03;;;10.75;75.72
13420;BME280;6781;58.440;15.470;2023-04-10T11:02:14;101864.66;;;10.39;76.02
13420;BME280;6781;58.440;15.470;2023-04-10T11:04:45;101865.53;;;10.68;76.42
13420;BME280;6781;58.440;15.470;2023-04-10T11:07:12;101855.72;;;10.59;75.55
13420;BME280;6781;58.440;15.470;2023-04-10T11:09:49;101863.63;;;10.42;74.88
13420;BME280;6781;58.440;15.470;2023-04-10T11:12:17;101848.19;;;10.55;75.55
13420;BME280;6781;58.440;15.470;2023-04-10T11:14:44;101842.03;;;10.41;72.73
13420;BME280;6781;58.440;15.470;2023-04-10T11:20:05;101850.31;;;10.48;72.55
13420;BME280;6781;58.440;15.470;2023-04-10T11:22:39;101843.81;;;10.27;71.72
13420;BME280;6781;58.440;15.470;2023-04-10T11:25:19;101821.28;;;10.27;70.58
13420;BME280;6781;58.440;15.470;2023-04-10T11:27:46;101811.41;;;10.48;72.59
13420;BME280;6781;58.440;15.470;2023-04-10T11:30:26;101817.59;;;10.46;72.12
13420;BME280;6781;58.440;15.470;2023-04-10T11:32:53;101821.16;;;10.59;71.88
13420;BME280;6781;58.440;15.470;2023-04-10T11:35:21;101820.44;;;10.85;73.38
13420;BME280;6781;58.440;15.470;2023-04-10T11:37:49;101801.16;;;10.89;72.64
13420;BME280;6781;58.440;15.470;2023-04-10T11:40:15;101813.38;;;10.87;72.61
13420;BME280;6781;58.440;15.470;2023-04-10T11:42:42;101805.59;;;10.73;70.10
13420;BME280;6781;58.440;15.470;2023-04-10T11:45:22;101800.03;;;10.65;69.91
13420;BME280;6781;58.440;15.470;2023-04-10T11:47:50;101781.78;;;10.81;68.89
13420;BME280;6781;58.440;15.470;2023-04-10T11:50:17;101785.38;;;10.92;68.16
13420;BME280;6781;58.440;15.470;2023-04-10T11:52:46;101780.66;;;10.85;66.90
13420;BME280;6781;58.440;15.470;2023-04-10T11:55:14;101795.03;;;10.76;69.15
13420;BME280;6781;58.440;15.470;2023-04-10T11:57:42;101774.81;;;10.81;67.72
13420;BME280;6781;58.440;15.470;2023-04-10T12:00:09;101764.25;;;10.70;66.23
13420;BME280;6781;58.440;15.470;2023-04-10T12:02:48;101756.09;;;10.76;65.94
13420;BME280;6781;58.440;15.470;2023-04-10T12:05:16;101768.53;;;10.85;68.28
13420;BME280;6781;58.440;15.470;2023-04-10T12:07:43;101761.09;;;10.79;68.51
13420;BME280;6781;58.440;15.470;2023-04-10T12:10:11;101753.59;;;10.89;67.49
13420;BME280;6781;58.440;15.470;2023-04-10T12:12:38;101732.56;;;10.79;66.04
13420;BME280;6781;58.440;15.470;2023-04-10T12:17:49;101751.44;;;11.09;69.99
13420;BME280;6781;58.440;15.470;2023-04-10T12:20:19;101747.56;;;10.88;68.73
13420;BME280;6781;58.440;15.470;2023-04-10T12:22:49;101738.09;;;11.01;67.75
13420;BME280;6781;58.440;15.470;2023-04-10T12:25:18;101727.03;;;11.12;66.72
13420;BME280;6781;58.440;15.470;2023-04-10T12:27:47;101723.53;;;11.40;65.53
13420;BME280;6781;58.440;15.470;2023-04-10T12:30:14;101718.88;;;11.45;63.61
13420;BME280;6781;58.440;15.470;2023-04-10T12:32:41;101717.38;;;11.68;63.58
13420;BME280;6781;58.440;15.470;2023-04-10T12:35:18;101705.72;;;11.88;62.68
13420;BME280;6781;58.440;15.470;2023-04-10T12:37:48;101698.75;;;12.01;62.25
13420;BME280;6781;58.440;15.470;2023-04-10T12:40:15;101688.47;;;11.99;61.19
13420;BME280;6781;58.440;15.470;2023-04-10T12:42:43;101692.66;;;11.75;60.92
13420;BME280;6781;58.440;15.470;2023-04-10T12:45:11;101694.16;;;12.17;61.17
13420;BME280;6781;58.440;15.470;2023-04-10T12:47:42;101672.16;;;12.59;59.97
13420;BME280;6781;58.440;15.470;2023-04-10T12:50:10;101661.78;;;12.83;59.70
13420;BME280;6781;58.440;15.470;2023-04-10T12:52:37;101667.22;;;12.80;59.86
13420;BME280;6781;58.440;15.470;2023-04-10T12:55:08;101653.16;;;12.83;59.61
13420;BME280;6781;58.440;15.470;2023-04-10T12:57:37;101664.63;;;13.17;59.53
13420;BME280;6781;58.440;15.470;2023-04-10T13:00:08;101650.88;;;12.78;57.32
13420;BME280;6781;58.440;15.470;2023-04-10T13:02:39;101647.78;;;12.97;57.05
13420;BME280;6781;58.440;15.470;2023-04-10T13:05:07;101638.47;;;13.06;57.23
13420;BME280;6781;58.440;15.470;2023-04-10T13:07:34;101636.09;;;12.29;56.44